Los Lunas, New Mexico
Current Conditions -  °F | °C
As of 4:35 PM on Tuesday 25 Nov 2014 (Local Time) from KE80 Reporting Station
Clear Clear  
Wind Chill: 46°   Ceiling: Unl
Heat Index: 46°   Visibility: 10mi
Dew Point:   Wind: 3mph
Humidity: 18%   Direction: 70°ENE
Pressure: 30.26"   Gusts: NA
Location:  34.81°N, 106.74°W
Report Text: KE80 252335Z AUTO 07003KT 10SM CLR 08/M16 A3026 RMK AO2 T00751157
Loading
Personal Weather Stations






























Interactive Weather Map New forecast layout! Learn more

10-Day Weather Forecast

Advertisements
Track Severe Weather on mobile